Time;durP1;ratioP1;P1;durP2;ratioP2;P2;SDS_P1;SDS_P2;PMS_P1;PMS_P2;Temp;Humidity;BMP_temperature;BMP_pressure;BME280_temperature;BME280_humidity;BME280_pressure;Samples;Min_cycle;Max_cycle;Signal;HPM_P1;HPM_P2
2021/11/12 00:12:32;;;;;;;44.95;18.02;;;;;;;8.96;98.26;102263.88;5046661;28;20057;-67
2021/11/12 00:15:04;;;;;;;37.75;19.17;;;;;;;8.97;96.97;102266.53;5064990;28;20568;-68
2021/11/12 00:17:35;;;;;;;45.97;19.13;;;;;;;8.97;96.49;102266.53;5070764;28;20472;-68
2021/11/12 00:20:05;;;;;;;40.05;17.67;;;;;;;8.99;96.17;102269.19;5070309;28;20048;-68
2021/11/12 00:22:34;;;;;;;41.05;16.65;;;;;;;9.01;95.83;102261.16;5067453;28;20052;-67
2021/11/12 00:25:05;;;;;;;42.60;18.63;;;;;;;8.98;95.70;102265.63;5070080;28;20448;-67
2021/11/12 00:27:36;;;;;;;42.58;17.42;;;;;;;8.96;94.75;102253.22;5050988;28;20070;-68
2021/11/12 00:30:22;;;;;;;40.22;16.65;;;;;;;8.97;95.20;102249.66;5068761;28;20048;-68
2021/11/12 00:32:58;;;;;;;39.75;17.25;;;;;;;8.95;95.47;102248.78;5064641;28;20060;-67
2021/11/12 00:35:32;;;;;;;36.35;16.27;;;;;;;8.92;95.96;102246.09;5068163;28;20051;-69
2021/11/12 00:38:05;;;;;;;41.28;16.50;;;;;;;8.91;96.18;102244.34;5058315;28;20060;-67
2021/11/12 00:40:40;;;;;;;41.35;16.52;;;;;;;8.89;96.30;102239.03;5057623;28;20051;-69
2021/11/12 00:43:13;;;;;;;36.63;16.30;;;;;;;8.90;96.60;102234.59;5040887;28;20152;-69
2021/11/12 00:45:54;;;;;;;39.23;17.23;;;;;;;8.87;95.78;102226.59;5056128;28;20044;-67
2021/11/12 00:48:26;;;;;;;38.38;17.00;;;;;;;8.87;96.19;102221.28;5059495;28;20048;-67
2021/11/12 00:51:08;;;;;;;34.75;16.50;;;;;;;8.86;96.16;102219.53;5048570;28;20072;-67
2021/11/12 00:56:25;;;;;;;40.42;17.13;;;;;;;8.87;96.42;102222.19;5050031;28;20052;-70
2021/11/12 00:58:58;;;;;;;32.72;16.08;;;;;;;8.85;96.29;102220.41;5057333;28;20064;-69
2021/11/12 01:01:33;;;;;;;38.35;17.58;;;;;;;8.81;96.83;102216.00;5050952;28;20131;-69
2021/11/12 01:04:06;;;;;;;43.67;18.33;;;;;;;8.75;97.19;102208.88;5054225;28;20071;-69
2021/11/12 01:06:36;;;;;;;34.65;17.05;;;;;;;8.78;97.29;102224.84;5053216;28;20048;-68
2021/11/12 01:09:07;;;;;;;40.92;17.98;;;;;;;8.77;97.77;102217.78;5037815;28;20067;-68
2021/11/12 01:11:35;;;;;;;37.13;17.40;;;;;;;8.75;97.74;102217.78;5048279;28;20183;-67
2021/11/12 01:14:08;;;;;;;39.97;17.67;;;;;;;8.72;97.94;102209.81;5054332;28;20052;-68
2021/11/12 01:16:41;;;;;;;40.92;17.10;;;;;;;8.72;98.10;102211.59;5046454;28;20057;-67
2021/11/12 01:19:10;;;;;;;43.90;17.65;;;;;;;8.71;98.34;102202.69;5056134;28;20056;-67
2021/11/12 01:21:39;;;;;;;42.55;17.48;;;;;;;8.74;98.55;102204.47;5051354;28;20121;-69
2021/11/12 01:24:08;;;;;;;41.42;18.23;;;;;;;8.73;98.29;102194.72;5052695;28;20508;-67
2021/11/12 01:26:36;;;;;;;38.65;18.58;;;;;;;8.73;98.52;102192.03;5041449;28;20181;-67
2021/11/12 01:29:05;;;;;;;43.83;18.65;;;;;;;8.73;98.46;102197.38;5053299;28;20056;-67
2021/11/12 01:31:34;;;;;;;46.33;18.77;;;;;;;8.72;98.98;102198.28;5049826;28;20152;-67
2021/11/12 01:34:08;;;;;;;48.50;17.65;;;;;;;8.70;99.35;102195.63;5053975;28;20110;-67
2021/11/12 01:36:42;;;;;;;42.97;17.45;;;;;;;8.71;99.06;102197.38;5012444;28;21449;-67
2021/11/12 01:39:13;;;;;;;45.17;19.85;;;;;;;8.72;99.44;102188.50;5053932;28;20056;-68
2021/11/12 01:41:45;;;;;;;40.72;19.48;;;;;;;8.74;99.25;102184.06;5051120;28;20078;-68
2021/11/12 01:44:17;;;;;;;46.72;20.05;;;;;;;8.70;99.58;102181.41;5053800;28;20584;-68
2021/11/12 01:46:53;;;;;;;42.17;18.85;;;;;;;8.68;99.64;102183.19;5051065;28;20052;-68
2021/11/12 01:49:27;;;;;;;46.22;21.73;;;;;;;8.68;99.64;102180.53;5053052;28;20135;-67
2021/11/12 01:52:08;;;;;;;42.50;19.90;;;;;;;8.65;99.78;102189.44;5050380;28;20872;-67
2021/11/12 01:57:30;;;;;;;48.20;20.63;;;;;;;8.58;100.00;102180.56;5049672;28;20051;-68
2021/11/12 01:59:59;;;;;;;46.60;19.92;;;;;;;8.58;100.00;102175.25;5053757;28;20147;-68
2021/11/12 02:02:28;;;;;;;45.10;21.73;;;;;;;8.57;100.00;102178.78;5052477;28;20060;-67
2021/11/12 02:05:01;;;;;;;46.72;21.52;;;;;;;8.57;100.00;102181.44;5054801;28;20140;-69
2021/11/12 02:07:29;;;;;;;40.17;18.90;;;;;;;8.58;99.99;102174.34;5031507;28;20041;-69
2021/11/12 02:09:58;;;;;;;43.22;20.27;;;;;;;8.55;100.00;102175.25;5053014;28;20531;-69
2021/11/12 02:12:32;;;;;;;40.78;19.48;;;;;;;8.54;100.00;102176.13;5045636;28;20059;-69
2021/11/12 02:15:00;;;;;;;;;;;;;;;8.55;100.00;102166.38;5051033;28;20532;-67
2021/11/12 02:17:31;;;;;;;40.92;18.45;;;;;;;8.55;100.00;102166.38;5046743;28;19924;-69
2021/11/12 02:20:06;;;;;;;47.00;19.23;;;;;;;8.52;100.00;102166.41;5050932;28;20044;-70
2021/11/12 02:22:37;;;;;;;48.30;21.40;;;;;;;8.52;100.00;102158.41;5048442;28;20493;-76
2021/11/12 02:25:09;;;;;;;46.90;19.55;;;;;;;8.52;100.00;102155.75;5051491;28;20500;-69
2021/11/12 02:27:42;;;;;;;41.40;19.25;;;;;;;8.53;100.00;102154.84;5048658;28;20080;-70
2021/11/12 02:30:20;;;;;;;41.03;20.50;;;;;;;8.51;100.00;102151.31;5054052;28;20079;-69
2021/11/12 02:32:57;;;;;;;44.30;19.10;;;;;;;8.49;100.00;102140.66;5032739;28;20892;-69
2021/11/12 02:35:26;;;;;;;40.35;19.80;;;;;;;8.50;100.00;102141.56;5042164;28;20052;-69
2021/11/12 02:37:57;;;;;;;39.85;17.77;;;;;;;8.49;100.00;102126.50;5058184;28;20052;-69
2021/11/12 02:40:25;;;;;;;40.67;18.33;;;;;;;8.50;100.00;102126.50;5050694;28;20061;-69
2021/11/12 02:42:56;;;;;;;41.05;18.98;;;;;;;8.50;100.00;102126.50;5053701;28;20300;-70
2021/11/12 02:45:25;;;;;;;44.55;20.45;;;;;;;8.53;100.00;102129.16;5048833;28;20119;-68
2021/11/12 02:47:54;;;;;;;40.15;19.17;;;;;;;8.52;100.00;102131.81;5038926;28;20457;-67
2021/11/12 02:50:22;;;;;;;45.97;20.70;;;;;;;8.49;100.00;102127.38;5049941;28;20064;-68
2021/11/12 02:52:56;;;;;;;41.88;19.60;;;;;;;8.47;100.00;102121.16;5029372;28;20063;-67
2021/11/12 02:55:26;;;;;;;42.08;19.88;;;;;;;8.45;100.00;102116.75;5034251;28;20083;-67
2021/11/12 02:57:56;;;;;;;44.95;22.25;;;;;;;8.45;100.00;102111.44;5052608;28;20049;-68
2021/11/12 03:00:25;;;;;;;42.45;21.10;;;;;;;8.41;100.00;102111.41;5051843;28;20150;-68
2021/11/12 03:02:54;;;;;;;42.80;20.85;;;;;;;8.47;100.00;102105.22;5051124;28;20044;-75
2021/11/12 03:05:24;;;;;;;43.25;21.15;;;;;;;8.43;100.00;102102.56;5050664;28;20540;-77
2021/11/12 03:07:52;;;;;;;49.55;23.38;;;;;;;8.39;100.00;102102.56;5052082;28;20128;-75
2021/11/12 03:10:20;;;;;;;42.60;20.90;;;;;;;8.36;100.00;102105.22;5053400;28;20053;-75
2021/11/12 03:12:49;;;;;;;46.03;20.30;;;;;;;8.40;100.00;102106.09;5046531;28;20055;-75
2021/11/12 03:15:17;;;;;;;46.03;21.23;;;;;;;8.33;100.00;102101.69;5053259;28;20048;-75
2021/11/12 03:17:47;;;;;;;43.58;20.67;;;;;;;8.35;100.00;102089.25;5049141;28;20067;-74
2021/11/12 03:20:18;;;;;;;49.35;21.77;;;;;;;8.38;100.00;102078.63;5046152;28;20057;-75
2021/11/12 03:22:51;;;;;;;45.35;21.98;;;;;;;8.33;100.00;102081.28;5055130;28;20056;-75
2021/11/12 03:25:27;;;;;;;46.63;22.07;;;;;;;8.27;100.00;102077.75;5052444;28;20049;-75
2021/11/12 03:28:13;;;;;;;51.38;21.15;;;;;;;8.27;100.00;102069.78;5048989;28;20342;-75
2021/11/12 04:01:35;;;;;;;36.33;19.17;;;;;;;8.01;98.60;101988.31;5047608;28;20466;-75
2021/11/12 04:04:20;;;;;;;39.55;19.30;;;;;;;7.97;98.83;101984.78;5046542;28;20049;-75
2021/11/12 04:06:54;;;;;;;37.58;19.00;;;;;;;7.98;99.14;101980.34;5049838;28;20084;-75
2021/11/12 04:40:42;;;;;;;40.97;20.58;;;;;;;7.48;99.19;101975.16;4936551;28;20110;-76
2021/11/12 05:11:11;;;;;;;47.88;22.33;;;;;;;6.67;100.00;101960.06;5046964;28;23451;-68
2021/11/12 05:14:08;;;;;;;43.88;22.20;;;;;;;6.68;100.00;101963.63;5055109;28;20522;-68
2021/11/12 05:44:22;;;;;;;55.03;26.23;;;;;;;5.98;100.00;101943.97;5054589;28;20041;-68
2021/11/12 05:47:01;;;;;;;61.72;27.88;;;;;;;5.93;100.00;101933.28;5051208;28;20064;-68
2021/11/12 05:49:44;;;;;;;61.30;29.70;;;;;;;5.93;100.00;101935.94;5051784;28;20052;-68
2021/11/12 05:52:20;;;;;;;65.15;30.00;;;;;;;5.91;100.00;101924.47;5028281;28;20186;-67
2021/11/12 05:55:08;;;;;;;60.50;27.95;;;;;;;5.92;100.00;101920.91;5052654;28;20521;-69
2021/11/12 05:57:39;;;;;;;62.35;29.13;;;;;;;5.85;100.00;101894.41;5050211;28;20045;-68
2021/11/12 06:00:14;;;;;;;63.63;29.15;;;;;;;5.80;100.00;101884.66;5035122;28;20143;-68
2021/11/12 06:02:43;;;;;;;62.08;30.15;;;;;;;5.79;100.00;101882.03;5052141;28;20049;-68
2021/11/12 06:05:12;;;;;;;57.20;27.92;;;;;;;5.76;100.00;101876.72;5052660;28;20500;-76
2021/11/12 06:07:39;;;;;;;59.33;27.27;;;;;;;5.78;100.00;101874.94;5051303;28;20083;-76
2021/11/12 06:10:08;;;;;;;69.63;29.40;;;;;;;5.75;100.00;101874.94;5053374;28;20041;-76
2021/11/12 06:12:37;;;;;;;59.15;28.58;;;;;;;5.65;100.00;101878.41;5047536;28;20086;-76
2021/11/12 06:15:06;;;;;;;65.75;30.63;;;;;;;5.57;100.00;101871.31;5050623;28;20704;-76
2021/11/12 06:17:35;;;;;;;71.20;31.38;;;;;;;5.56;100.00;101858.06;5049845;28;20133;-69
2021/11/12 06:20:04;;;;;;;77.00;33.20;;;;;;;5.46;100.00;101854.50;5050592;28;20076;-69
2021/11/12 06:22:34;;;;;;;79.70;33.53;;;;;;;5.46;100.00;101866.84;5050709;28;20074;-69
2021/11/12 06:25:04;;;;;;;73.78;33.60;;;;;;;5.39;100.00;101860.63;5051142;28;20080;-75
2021/11/12 06:27:32;;;;;;;69.50;33.78;;;;;;;5.41;100.00;101872.09;5049707;28;20187;-75
2021/11/12 06:30:01;;;;;;;73.85;35.53;;;;;;;5.35;100.00;101866.81;5053087;28;20048;-75
2021/11/12 06:32:29;;;;;;;69.20;34.13;;;;;;;5.34;100.00;101865.00;5050776;28;20044;-75
2021/11/12 06:34:57;;;;;;;76.85;34.38;;;;;;;5.34;100.00;101860.59;5045865;28;20098;-75
2021/11/12 06:37:25;;;;;;;80.38;36.45;;;;;;;5.28;100.00;101860.59;5055246;28;20313;-75
2021/11/12 06:39:53;;;;;;;91.47;39.67;;;;;;;5.23;100.00;101878.19;5052617;28;20045;-75
2021/11/12 06:42:23;;;;;;;86.00;36.25;;;;;;;5.20;100.00;101880.81;5047597;28;20056;-75
2021/11/12 06:50:15;;;;;;;85.90;37.15;;;;;;;5.17;100.00;101870.19;5048842;28;20494;-76
2021/11/12 06:52:45;;;;;;;87.88;39.20;;;;;;;5.19;100.00;101865.78;5044956;28;20056;-76
2021/11/12 06:55:14;;;;;;;95.40;39.65;;;;;;;5.14;100.00;101854.28;5049711;28;20244;-76
2021/11/12 06:57:44;;;;;;;83.07;37.78;;;;;;;5.12;100.00;101850.75;5034324;28;20840;-76
2021/11/12 07:00:16;;;;;;;94.40;40.13;;;;;;;5.13;100.00;101855.19;5048638;28;20476;-76
2021/11/12 07:02:46;;;;;;;95.78;39.30;;;;;;;5.11;100.00;101843.69;5054469;28;20048;-76
2021/11/12 07:05:15;;;;;;;89.20;37.00;;;;;;;5.11;100.00;101834.00;5052029;28;20059;-76
2021/11/12 07:07:45;;;;;;;87.60;37.60;;;;;;;5.12;100.00;101835.75;5051299;28;20048;-75
2021/11/12 07:10:13;;;;;;;91.40;39.03;;;;;;;5.11;100.00;101846.34;5050648;28;20228;-75
2021/11/12 07:12:41;;;;;;;92.22;40.03;;;;;;;5.08;100.00;101849.84;5050381;28;20432;-75
2021/11/12 07:15:10;;;;;;;89.97;38.50;;;;;;;5.04;100.00;101848.09;5051393;28;20167;-75
2021/11/12 07:17:38;;;;;;;102.13;41.20;;;;;;;5.02;100.00;101850.72;5046113;28;20087;-75
2021/11/12 07:20:09;;;;;;;94.97;41.45;;;;;;;5.01;100.00;101856.88;5050323;28;20048;-75
2021/11/12 07:22:37;;;;;;;89.95;40.80;;;;;;;5.02;100.00;101858.66;5049093;28;20628;-75
2021/11/12 07:25:06;;;;;;;85.50;37.45;;;;;;;5.04;100.00;101837.50;5051132;28;20052;-75
2021/11/12 07:27:36;;;;;;;99.65;40.33;;;;;;;5.05;100.00;101832.19;5049488;28;20139;-75
2021/11/12 07:30:18;;;;;;;81.30;37.50;;;;;;;5.10;100.00;101831.34;5046220;28;20040;-75
2021/11/12 07:32:48;;;;;;;88.60;37.35;;;;;;;5.14;100.00;101826.09;5052707;28;20048;-69
2021/11/12 07:35:24;;;;;;;93.95;40.53;;;;;;;5.10;100.00;101832.22;5050584;28;20048;-68
2021/11/12 07:37:58;;;;;;;104.88;42.53;;;;;;;5.08;100.00;101833.13;5036638;28;20080;-68
2021/11/12 07:40:46;;;;;;;91.50;38.97;;;;;;;5.13;100.00;101819.03;5051922;28;20052;-68
2021/11/12 07:46:10;;;;;;;99.50;42.25;;;;;;;5.13;100.00;101819.03;5044227;28;20393;-68
2021/11/12 07:48:42;;;;;;;89.88;40.33;;;;;;;5.12;100.00;101826.94;5036296;28;20127;-68
2021/11/12 07:51:12;;;;;;;93.88;42.95;;;;;;;5.09;100.00;101817.25;5053837;28;20500;-68
2021/11/12 07:53:41;;;;;;;93.53;39.35;;;;;;;5.14;100.00;101809.31;5045445;28;20625;-68
2021/11/12 07:56:09;;;;;;;85.55;36.63;;;;;;;5.17;100.00;101804.06;5045833;28;20163;-68
2021/11/12 07:58:40;;;;;;;85.93;40.47;;;;;;;5.23;100.00;101796.16;5049639;28;20068;-68
2021/11/12 08:01:08;;;;;;;102.97;42.45;;;;;;;5.22;100.00;101805.84;5048613;28;20080;-68
2021/11/12 08:03:36;;;;;;;84.32;38.20;;;;;;;5.25;100.00;101818.22;5056678;28;20047;-68
2021/11/12 08:06:05;;;;;;;90.32;40.13;;;;;;;5.23;100.00;101801.44;5049255;28;20113;-68
2021/11/12 08:08:38;;;;;;;79.40;39.00;;;;;;;5.24;100.00;101798.81;5052961;28;20048;-68
2021/11/12 08:11:12;;;;;;;91.55;40.47;;;;;;;5.22;100.00;101795.25;5048611;28;20049;-68
2021/11/12 08:13:44;;;;;;;95.28;42.15;;;;;;;5.26;100.00;101790.88;5053312;28;20052;-68
2021/11/12 08:16:51;;;;;;;93.43;40.95;;;;;;;5.29;100.00;101784.72;5050519;28;20680;-75
2021/11/12 08:19:21;;;;;;;100.95;43.05;;;;;;;5.30;100.00;101782.06;5052321;28;20146;-76
2021/11/12 08:21:55;;;;;;;97.85;42.17;;;;;;;5.31;100.00;101777.66;5052571;28;20512;-76
2021/11/12 08:24:34;;;;;;;91.40;43.30;;;;;;;5.31;100.00;101777.66;5052433;28;20140;-76
2021/11/12 08:27:13;;;;;;;97.32;44.72;;;;;;;5.34;100.00;101777.66;5050796;28;20056;-74
2021/11/12 08:29:51;;;;;;;93.80;42.75;;;;;;;5.35;100.00;101782.97;5048112;28;20055;-75
2021/11/12 08:35:12;;;;;;;108.20;46.58;;;;;;;5.15;100.00;101776.69;5052453;28;20284;-75
2021/11/12 08:37:50;;;;;;;109.32;44.25;;;;;;;5.11;100.00;101770.50;5055168;28;20080;-75
2021/11/12 08:40:30;;;;;;;117.45;44.50;;;;;;;5.02;100.00;101766.06;5053851;28;20040;-74
2021/11/12 08:43:03;;;;;;;115.18;45.20;;;;;;;5.05;100.00;101771.34;5055047;28;20052;-75
2021/11/12 08:45:35;;;;;;;114.68;43.45;;;;;;;5.16;100.00;101771.41;5045179;28;20059;-75
2021/11/12 08:48:06;;;;;;;114.97;44.47;;;;;;;5.11;100.00;101767.88;5053341;28;20052;-75
2021/11/12 08:50:36;;;;;;;130.77;46.25;;;;;;;5.06;100.00;101756.38;5047144;28;20068;-75
2021/11/12 08:53:09;;;;;;;123.15;44.38;;;;;;;5.11;100.00;101759.03;5051153;28;20480;-74
2021/11/12 08:55:44;;;;;;;117.45;44.25;;;;;;;5.00;100.00;101765.13;5045325;28;20057;-74
2021/11/12 08:58:13;;;;;;;124.00;46.53;;;;;;;4.88;100.00;101764.19;5055765;28;20139;-74
2021/11/12 09:00:42;;;;;;;113.63;44.53;;;;;;;4.94;100.00;101761.56;5047834;28;20794;-74
2021/11/12 09:03:11;;;;;;;123.45;45.60;;;;;;;4.99;100.00;101758.09;5054629;28;20053;-74
2021/11/12 09:05:39;;;;;;;115.72;42.58;;;;;;;4.99;100.00;101760.75;5050367;28;20135;-74
2021/11/12 09:08:08;;;;;;;113.05;42.15;;;;;;;5.14;100.00;101759.03;5053735;28;20044;-67
2021/11/12 09:10:37;;;;;;;120.55;40.70;;;;;;;5.20;100.00;101749.38;5047668;28;20052;-67
2021/11/12 09:13:14;;;;;;;113.10;42.97;;;;;;;5.11;100.00;101743.16;5052200;28;20060;-67
2021/11/12 09:15:49;;;;;;;121.53;40.47;;;;;;;5.22;100.00;101739.69;5026777;28;20115;-67
2021/11/12 09:18:22;;;;;;;108.03;38.45;;;;;;;5.20;100.00;101735.28;5050240;28;20615;-68
2021/11/12 09:20:51;;;;;;;109.70;38.13;;;;;;;5.11;100.00;101729.91;5046268;28;20223;-67
2021/11/12 09:23:20;;;;;;;117.40;41.20;;;;;;;5.17;100.00;101728.19;5047857;28;20084;-74
2021/11/12 09:25:48;;;;;;;101.65;38.80;;;;;;;5.24;100.00;101722.06;5046790;28;20056;-74
2021/11/12 09:28:18;;;;;;;102.40;36.15;;;;;;;5.39;100.00;101721.22;5046585;28;20055;-74
2021/11/12 09:30:45;;;;;;;105.93;40.33;;;;;;;5.40;100.00;101714.19;5042450;28;20045;-74
2021/11/12 09:33:13;;;;;;;109.45;38.42;;;;;;;5.52;100.00;101716.00;5050035;28;21088;-74
2021/11/12 09:35:45;;;;;;;96.78;35.45;;;;;;;5.60;100.00;101708.91;5047176;28;20140;-68
2021/11/12 09:38:13;;;;;;;100.30;37.92;;;;;;;5.82;100.00;101707.19;5053687;28;20040;-67
2021/11/12 09:40:41;;;;;;;100.88;38.70;;;;;;;5.76;100.00;101709.84;5032639;28;21413;-74
2021/11/12 09:43:09;;;;;;;93.32;37.70;;;;;;;6.03;100.00;101717.00;5050210;28;20060;-74
2021/11/12 09:45:39;;;;;;;88.10;36.28;;;;;;;5.98;100.00;101711.69;5047929;28;20080;-75
2021/11/12 09:48:09;;;;;;;94.03;36.40;;;;;;;6.14;100.00;101711.69;5050961;28;20048;-68
2021/11/12 09:50:38;;;;;;;91.15;35.90;;;;;;;6.06;100.00;101708.13;5030375;28;20090;-68
2021/11/12 09:53:08;;;;;;;82.18;34.92;;;;;;;6.13;100.00;101705.50;5027106;28;20090;-68
2021/11/12 09:55:37;;;;;;;81.50;31.50;;;;;;;6.16;100.00;101699.31;5049137;28;20053;-68
2021/11/12 09:58:07;;;;;;;87.88;33.53;;;;;;;6.27;100.00;101697.56;5051192;28;20493;-68
2021/11/12 10:00:38;;;;;;;77.18;31.58;;;;;;;6.37;100.00;101690.47;5045056;28;20049;-68
2021/11/12 10:03:10;;;;;;;73.45;30.83;;;;;;;6.14;100.00;101691.34;5050774;28;21393;-68
2021/11/12 10:05:44;;;;;;;73.47;30.50;;;;;;;6.38;100.00;101694.88;5032565;28;20040;-68
2021/11/12 10:08:25;;;;;;;70.40;29.30;;;;;;;6.50;100.00;101688.69;5053500;28;20052;-67
2021/11/12 10:11:02;;;;;;;72.85;31.00;;;;;;;6.58;100.00;101689.56;5031271;28;20049;-68
2021/11/12 10:13:33;;;;;;;68.38;27.92;;;;;;;6.78;100.00;101689.50;5053282;28;20055;-68
2021/11/12 10:19:17;;;;;;;70.88;31.20;;;;;;;6.80;99.73;101666.50;5027542;28;20391;-68
2021/11/12 10:21:47;;;;;;;77.43;31.35;;;;;;;6.85;99.65;101678.00;5058501;28;20105;-76
2021/11/12 10:24:18;;;;;;;67.72;28.58;;;;;;;6.97;99.32;101674.41;5046671;28;20083;-75
2021/11/12 10:26:49;;;;;;;64.78;30.30;;;;;;;7.26;97.59;101663.66;5055256;28;20114;-75
2021/11/12 10:29:29;;;;;;;63.03;28.13;;;;;;;7.22;96.46;101663.66;5049327;28;20132;-75
2021/11/12 10:32:02;;;;;;;66.65;31.23;;;;;;;7.35;96.75;101665.38;5054030;28;20050;-76
2021/11/12 10:34:34;;;;;;;70.10;28.40;;;;;;;7.53;96.29;101653.78;5047650;28;20500;-77
2021/11/12 10:37:04;;;;;;;60.42;29.58;;;;;;;7.64;94.46;101646.63;5055730;28;20057;-77
2021/11/12 10:39:42;;;;;;;68.60;29.60;;;;;;;7.56;94.18;101632.50;5049075;28;20052;-75
2021/11/12 10:42:12;;;;;;;68.43;31.27;;;;;;;7.58;94.61;101632.50;5054597;28;20068;-75
2021/11/12 10:44:44;;;;;;;67.63;32.15;;;;;;;7.60;93.75;101633.38;5050354;28;20056;-75
2021/11/12 10:47:15;;;;;;;68.57;30.13;;;;;;;8.03;93.04;101623.25;5054022;28;20048;-76
2021/11/12 10:49:45;;;;;;;71.38;33.55;;;;;;;7.80;92.57;101620.81;5050305;28;20048;-76
2021/11/12 10:52:16;;;;;;;65.20;29.65;;;;;;;8.10;91.88;101617.91;5048956;28;20311;-76
2021/11/12 10:54:56;;;;;;;67.00;30.88;;;;;;;8.08;92.56;101609.06;5049331;28;20068;-75
2021/11/12 10:57:31;;;;;;;67.30;29.67;;;;;;;7.99;92.12;101613.56;5055643;28;20102;-68
2021/11/12 11:00:10;;;;;;;57.95;28.52;;;;;;;7.96;93.11;101597.63;5032491;28;20089;-68
2021/11/12 11:02:44;;;;;;;57.53;27.00;;;;;;;7.96;91.86;101599.41;5036762;28;20052;-68
2021/11/12 11:05:17;;;;;;;62.25;28.00;;;;;;;7.97;92.24;101591.44;5049577;28;20500;-76
2021/11/12 11:07:52;;;;;;;60.50;28.25;;;;;;;8.20;91.86;101593.84;5054975;28;20171;-76
2021/11/12 11:10:24;;;;;;;55.97;27.17;;;;;;;8.12;90.99;101585.09;5050045;28;20097;-70
2021/11/12 11:12:53;;;;;;;52.65;24.60;;;;;;;8.13;91.07;101581.53;5051814;28;20063;-69
2021/11/12 11:15:26;;;;;;;60.90;26.55;;;;;;;8.20;91.45;101577.03;5047283;28;20052;-68
2021/11/12 11:18:19;;;;;;;53.45;23.77;;;;;;;8.16;91.16;101562.91;5048457;28;20056;-71
2021/11/12 11:20:59;;;;;;;60.55;27.08;;;;;;;8.07;91.85;101556.78;5051814;28;20499;-69
2021/11/12 11:23:31;;;;;;;54.25;26.80;;;;;;;8.11;91.71;101558.53;5051479;28;20048;-69
2021/11/12 11:26:05;;;;;;;50.90;25.40;;;;;;;8.13;92.19;101554.94;5033176;28;20130;-69
2021/11/12 11:28:37;;;;;;;52.17;27.60;;;;;;;8.06;91.87;101539.97;5053997;28;20174;-69
2021/11/12 11:31:12;;;;;;;52.72;26.60;;;;;;;8.10;91.73;101531.06;5032625;28;20480;-69
2021/11/12 11:33:42;;;;;;;57.35;25.73;;;;;;;8.27;92.02;101536.19;5050061;28;20047;-75
2021/11/12 11:36:13;;;;;;;44.65;24.08;;;;;;;8.23;91.51;101535.34;5051494;28;20122;-75
2021/11/12 11:38:42;;;;;;;55.05;27.77;;;;;;;8.16;92.08;101536.31;5052756;28;20741;-75
2021/11/12 11:41:12;;;;;;;46.13;22.27;;;;;;;8.14;92.09;101522.16;5052253;28;20128;-75
2021/11/12 11:43:41;;;;;;;50.70;26.45;;;;;;;8.10;91.73;101532.84;5052038;28;20063;-68
2021/11/12 11:46:16;;;;;;;51.58;26.10;;;;;;;8.09;91.82;101517.78;5048974;28;20163;-69
2021/11/12 11:48:47;;;;;;;45.95;24.67;;;;;;;8.17;92.31;101518.56;5049055;28;20059;-69
2021/11/12 11:51:24;;;;;;;47.55;23.80;;;;;;;8.25;91.60;101505.22;5056119;28;20339;-71
2021/11/12 11:53:53;;;;;;;47.13;24.58;;;;;;;8.32;91.41;101506.88;5044253;28;20128;-75
2021/11/12 11:56:28;;;;;;;45.72;23.55;;;;;;;8.36;91.73;101500.63;5050095;28;20040;-75
2021/11/12 11:58:56;;;;;;;52.50;25.55;;;;;;;8.44;90.76;101495.25;5045087;28;20066;-75
2021/11/12 12:01:37;;;;;;;44.50;23.50;;;;;;;8.37;90.44;101487.31;5054163;28;20052;-75
2021/11/12 12:04:36;;;;;;;51.97;24.70;;;;;;;8.33;90.70;101493.56;5045270;28;20543;-75
2021/11/12 12:07:28;;;;;;;48.03;23.33;;;;;;;8.40;91.37;101483.75;5052794;28;20435;-75
2021/11/12 12:10:19;;;;;;;52.28;24.75;;;;;;;8.41;91.46;101488.13;5031961;28;20053;-75
2021/11/12 12:12:50;;;;;;;49.10;25.17;;;;;;;8.38;91.44;101475.78;5044668;28;20052;-75
2021/11/12 12:15:37;;;;;;;45.35;25.08;;;;;;;8.41;91.42;101473.09;5048671;28;20071;-75
2021/11/12 12:18:12;;;;;;;47.30;24.33;;;;;;;8.38;91.46;101472.25;5050789;28;20062;-76
2021/11/12 12:20:57;;;;;;;48.00;25.83;;;;;;;8.41;91.14;101470.44;5048952;28;20403;-76
2021/11/12 12:35:02;;;;;;;47.45;26.30;;;;;;;8.33;92.54;101435.06;5051450;28;20052;-69
2021/11/12 13:18:08;;;;;;;;;;;;;;;8.47;91.98;101423.41;5052392;28;20333;-68
2021/11/12 13:23:15;;;;;;;40.42;20.88;;;;;;;9.03;88.51;101335.59;5054551;28;20047;-79
2021/11/12 13:25:45;;;;;;;41.17;22.50;;;;;;;9.00;88.31;101333.84;5051975;28;20052;-79
2021/11/12 13:28:20;;;;;;;46.47;21.38;;;;;;;9.08;87.72;101329.28;5052752;28;20138;-78
2021/11/12 13:30:53;;;;;;;42.05;22.92;;;;;;;8.97;88.04;101332.16;5053384;28;20053;-78
2021/11/12 13:33:31;;;;;;;41.72;22.05;;;;;;;9.04;88.03;101330.25;5054425;28;20055;-79
2021/11/12 13:36:04;;;;;;;40.10;19.92;;;;;;;9.07;87.45;101326.66;5055120;28;20090;-68
2021/11/12 13:38:36;;;;;;;36.05;20.95;;;;;;;9.07;86.93;101310.69;5055148;28;20067;-68
2021/11/12 13:41:07;;;;;;;39.75;20.23;;;;;;;9.13;86.68;101297.25;5053011;28;20179;-68
2021/11/12 13:43:38;;;;;;;44.28;22.15;;;;;;;9.10;86.40;101295.53;5053840;28;20059;-70
2021/11/12 13:46:09;;;;;;;41.92;20.27;;;;;;;9.07;86.04;101292.91;5051340;28;20055;-70
2021/11/12 13:48:50;;;;;;;39.45;19.80;;;;;;;9.12;85.48;101296.38;5035923;28;20070;-68
2021/11/12 13:51:25;;;;;;;37.55;18.88;;;;;;;9.21;85.53;101297.09;5049999;28;20143;-68
2021/11/12 13:53:53;;;;;;;35.33;18.67;;;;;;;9.21;85.01;101295.34;5046773;28;20048;-70
2021/11/12 13:56:21;;;;;;;38.95;18.98;;;;;;;9.22;84.66;101294.41;5050169;28;20047;-69
2021/11/12 13:59:04;;;;;;;39.08;18.52;;;;;;;9.27;84.09;101287.22;5013258;28;20629;-68
2021/11/12 14:01:35;;;;;;;37.50;17.33;;;;;;;9.25;84.24;101293.50;5037632;28;20044;-70
2021/11/12 14:04:23;;;;;;;34.70;18.45;;;;;;;9.29;84.59;101287.19;5045792;28;20128;-70
2021/11/12 14:06:52;;;;;;;39.38;18.20;;;;;;;9.32;85.23;101282.66;5051587;28;20131;-77
2021/11/12 14:09:23;;;;;;;41.38;19.13;;;;;;;9.24;85.03;101276.63;5048938;28;20108;-76
2021/11/12 14:12:03;;;;;;;39.90;17.42;;;;;;;9.31;85.20;101280.94;5053239;28;20052;-77
2021/11/12 14:14:33;;;;;;;37.85;18.35;;;;;;;9.29;85.66;101281.84;5045989;28;20084;-77
2021/11/12 14:20:23;;;;;;;38.10;18.52;;;;;;;9.31;85.91;101277.38;5097187;27;20426;-78
2021/11/12 14:23:03;;;;;;;34.80;17.38;;;;;;;9.35;86.26;101285.28;5101915;27;20127;-78
2021/11/12 14:28:21;;;;;;;38.03;18.75;;;;;;;9.32;86.12;101271.16;5100889;27;20309;-79
2021/11/12 14:33:50;;;;;;;32.70;16.80;;;;;;;9.36;85.96;101256.84;5095100;27;20047;-79
2021/11/12 14:36:33;;;;;;;37.08;17.00;;;;;;;9.38;85.00;101252.41;5104069;28;20134;-70
2021/11/12 14:39:37;;;;;;;29.77;16.08;;;;;;;9.39;86.02;101247.94;5097760;27;20124;-68
2021/11/12 14:45:09;;;;;;;36.63;16.42;;;;;;;9.42;84.68;101254.06;5100526;27;20063;-79
2021/11/12 14:47:51;;;;;;;35.85;15.73;;;;;;;9.43;84.82;101254.94;5104192;27;20067;-70
2021/11/12 14:50:31;;;;;;;29.13;14.75;;;;;;;9.45;84.65;101253.13;5102487;27;20182;-69
2021/11/12 14:53:24;;;;;;;30.20;15.35;;;;;;;9.40;85.18;101249.66;5102562;27;20048;-70
2021/11/12 14:56:01;;;;;;;27.47;14.23;;;;;;;9.46;84.43;101245.09;5103487;27;20052;-79
2021/11/12 14:58:29;;;;;;;29.05;13.63;;;;;;;9.44;84.63;101259.38;5098476;27;20866;-78
2021/11/12 15:01:07;;;;;;;27.75;14.27;;;;;;;9.48;84.33;101263.72;5101041;27;20174;-79
2021/11/12 15:03:36;;;;;;;31.15;14.07;;;;;;;9.44;84.74;101256.72;5099296;27;20055;-77
2021/11/12 15:06:08;;;;;;;28.58;13.60;;;;;;;9.45;84.24;101259.34;5102517;27;20344;-78
2021/11/12 15:08:44;;;;;;;29.35;13.45;;;;;;;9.44;84.31;101238.06;5098878;27;20567;-79
2021/11/12 15:11:12;;;;;;;30.10;15.00;;;;;;;9.48;83.79;101229.09;5101557;27;20071;-78
2021/11/12 15:13:42;;;;;;;29.15;13.30;;;;;;;9.46;84.07;101221.13;5101175;27;20043;-76